createdAt,value
2023-04-06T00:00:52.248Z,-3.17
2023-04-06T00:03:19.970Z,-3.17
2023-04-06T00:05:48.395Z,-3.21
2023-04-06T00:08:15.670Z,-3.26
2023-04-06T00:10:42.717Z,-3.27
2023-04-06T00:13:09.639Z,-3.30
2023-04-06T00:15:36.300Z,-3.29
2023-04-06T00:18:03.699Z,-3.30
2023-04-06T00:20:30.509Z,-3.32
2023-04-06T00:22:57.153Z,-3.33
2023-04-06T00:25:23.964Z,-3.34
2023-04-06T00:27:50.967Z,-3.31
2023-04-06T00:30:17.759Z,-3.30
2023-04-06T00:32:44.522Z,-3.30
2023-04-06T00:35:11.793Z,-3.30
2023-04-06T00:37:38.797Z,-3.34
2023-04-06T00:40:06.307Z,-3.27
2023-04-06T00:42:33.163Z,-3.25
2023-04-06T00:45:01.320Z,-3.29
2023-04-06T00:47:28.827Z,-3.35
2023-04-06T00:49:56.229Z,-3.39
2023-04-06T00:52:23.445Z,-3.45
2023-04-06T00:54:51.617Z,-3.51
2023-04-06T00:57:20.327Z,-3.52
2023-04-06T00:59:53.791Z,-3.58
2023-04-06T01:02:20.806Z,-3.60
2023-04-06T01:04:50.473Z,-3.59
2023-04-06T01:07:25.754Z,-3.62
2023-04-06T01:10:29.682Z,-3.64
2023-04-06T01:13:06.621Z,-3.64
2023-04-06T01:15:45.227Z,-3.69
2023-04-06T01:18:16.537Z,-3.73
2023-04-06T01:20:53.777Z,-3.81
2023-04-06T01:23:21.616Z,-3.78
2023-04-06T01:25:48.730Z,-3.78
2023-04-06T01:28:15.356Z,-3.86
2023-04-06T01:31:14.570Z,-3.91
2023-04-06T01:33:48.019Z,-3.88
2023-04-06T01:36:18.492Z,-3.87
2023-04-06T01:38:50.141Z,-3.87
2023-04-06T01:41:20.222Z,-3.87
2023-04-06T01:43:55.523Z,-3.92
2023-04-06T01:46:25.986Z,-3.99
2023-04-06T01:48:53.032Z,-3.92
2023-04-06T01:51:28.604Z,-3.93
2023-04-06T01:53:59.083Z,-3.91
2023-04-06T01:56:36.502Z,-3.98
2023-04-06T01:59:13.916Z,-4.06
2023-04-06T02:01:43.210Z,-4.07
2023-04-06T02:04:09.905Z,-4.09
2023-04-06T02:06:37.209Z,-4.13
2023-04-06T02:09:06.531Z,-4.21
2023-04-06T02:11:33.733Z,-4.17
2023-04-06T02:14:01.940Z,-4.19
2023-04-06T02:16:32.480Z,-4.22
2023-04-06T02:18:59.434Z,-4.23
2023-04-06T02:21:26.205Z,-4.24
2023-04-06T02:23:53.066Z,-4.22
2023-04-06T02:26:19.805Z,-4.24
2023-04-06T02:28:46.826Z,-4.29
2023-04-06T02:31:15.668Z,-4.32
2023-04-06T02:33:43.359Z,-4.35
2023-04-06T02:36:11.518Z,-4.28
2023-04-06T02:38:38.158Z,-4.27
2023-04-06T02:41:05.045Z,-4.28
2023-04-06T02:43:31.729Z,-4.29
2023-04-06T02:46:05.341Z,-4.24
2023-04-06T02:48:38.219Z,-4.32
2023-04-06T02:51:05.516Z,-4.36
2023-04-06T02:53:32.331Z,-4.42
2023-04-06T02:55:59.453Z,-4.40
2023-04-06T02:58:33.797Z,-4.45
2023-04-06T03:01:00.618Z,-4.49
2023-04-06T03:03:27.412Z,-4.50
2023-04-06T03:05:55.639Z,-4.52
2023-04-06T03:08:27.027Z,-4.58
2023-04-06T03:10:53.784Z,-4.60
2023-04-06T03:13:21.324Z,-4.65
2023-04-06T03:15:54.220Z,-4.69
2023-04-06T03:18:24.512Z,-4.67
2023-04-06T03:20:54.831Z,-4.64
2023-04-06T03:23:24.127Z,-4.71
2023-04-06T03:25:55.897Z,-4.73
2023-04-06T03:28:22.819Z,-4.77
2023-04-06T03:30:53.925Z,-4.81
2023-04-06T03:33:36.801Z,-4.84
2023-04-06T03:36:03.984Z,-4.86
2023-04-06T03:38:34.367Z,-4.78
2023-04-06T03:41:03.851Z,-4.75
2023-04-06T03:43:30.675Z,-4.70
2023-04-06T03:45:57.394Z,-4.72
2023-04-06T03:48:24.226Z,-4.72
2023-04-06T03:50:50.864Z,-4.74
2023-04-06T03:53:17.784Z,-4.73
2023-04-06T03:55:45.140Z,-4.79
2023-04-06T03:58:11.854Z,-4.78
2023-04-06T04:00:38.695Z,-4.77
2023-04-06T04:03:05.452Z,-4.75
2023-04-06T04:05:32.206Z,-4.76
2023-04-06T04:07:58.807Z,-4.80
2023-04-06T04:10:27.296Z,-4.82
2023-04-06T04:12:54.171Z,-4.80
2023-04-06T04:15:20.892Z,-4.83
2023-04-06T04:17:50.355Z,-4.86
2023-04-06T04:20:17.683Z,-4.86
2023-04-06T04:22:44.523Z,-4.88
2023-04-06T04:25:11.473Z,-4.89
2023-04-06T04:27:44.069Z,-4.83
2023-04-06T04:30:11.162Z,-4.88
2023-04-06T04:32:37.800Z,-4.91
2023-04-06T04:35:07.343Z,-4.90
2023-04-06T04:37:37.454Z,-4.90
2023-04-06T04:40:05.097Z,-4.89
2023-04-06T04:42:43.423Z,-4.88
2023-04-06T04:45:16.105Z,-4.91
2023-04-06T04:47:42.878Z,-4.94
2023-04-06T04:50:11.950Z,-4.93
2023-04-06T04:52:42.022Z,-4.95
2023-04-06T04:55:14.697Z,-4.89
2023-04-06T04:57:44.223Z,-4.80
2023-04-06T05:00:11.784Z,-4.70
2023-04-06T05:02:42.114Z,-4.70
2023-04-06T05:05:29.050Z,-4.74
2023-04-06T05:07:56.166Z,-4.78
2023-04-06T05:10:46.153Z,-4.70
2023-04-06T05:13:12.955Z,-4.64
2023-04-06T05:15:41.157Z,-4.57
2023-04-06T05:18:31.262Z,-4.46
2023-04-06T05:20:58.763Z,-4.36
2023-04-06T05:23:48.608Z,-4.20
2023-04-06T05:26:15.431Z,-4.05
2023-04-06T05:28:43.761Z,-3.85
2023-04-06T05:31:11.047Z,-3.68
2023-04-06T05:33:45.503Z,-3.45
2023-04-06T05:36:15.942Z,-3.21
2023-04-06T05:38:45.487Z,-2.99
2023-04-06T05:41:29.746Z,-2.73
2023-04-06T05:43:56.560Z,-2.62
2023-04-06T05:46:24.625Z,-2.43
2023-04-06T05:48:53.471Z,-2.22
2023-04-06T05:51:24.573Z,-2.05
2023-04-06T05:53:51.311Z,-1.78
2023-04-06T05:56:18.092Z,-1.51
2023-04-06T05:58:45.964Z,-1.29
2023-04-06T06:01:16.618Z,-1.21
2023-04-06T06:03:46.490Z,-1.27
2023-04-06T06:06:13.527Z,-1.06
2023-04-06T06:09:01.774Z,-0.63
2023-04-06T06:11:31.183Z,0.18
2023-04-06T06:13:58.216Z,0.17
2023-04-06T06:16:25.653Z,0.17
2023-04-06T06:18:52.452Z,0.31
2023-04-06T06:21:19.347Z,0.57
2023-04-06T06:23:48.233Z,0.43
2023-04-06T06:26:18.386Z,0.50
2023-04-06T06:28:45.191Z,0.72
2023-04-06T06:31:13.934Z,1.21
2023-04-06T06:33:41.022Z,1.35
2023-04-06T06:36:08.661Z,1.53
2023-04-06T06:38:35.489Z,1.50
2023-04-06T06:41:02.500Z,1.64
2023-04-06T06:43:32.221Z,1.75
2023-04-06T06:46:02.756Z,1.74
2023-04-06T06:48:29.734Z,1.78
2023-04-06T06:50:56.580Z,1.73
2023-04-06T06:53:24.265Z,1.85
2023-04-06T06:55:50.948Z,2.00
2023-04-06T06:58:20.050Z,1.93
2023-04-06T07:00:47.388Z,2.00
2023-04-06T07:03:14.372Z,2.48
2023-04-06T07:05:51.103Z,2.96
2023-04-06T07:08:17.798Z,3.46
2023-04-06T07:10:44.520Z,3.53
2023-04-06T07:13:11.479Z,3.51
2023-04-06T07:15:38.523Z,3.04
2023-04-06T07:18:05.584Z,3.02
2023-04-06T07:20:32.288Z,3.27
2023-04-06T07:22:58.956Z,3.22
2023-04-06T07:25:26.126Z,3.22
2023-04-06T07:27:53.038Z,3.15
2023-04-06T07:30:20.521Z,3.05
2023-04-06T07:32:47.653Z,3.05
2023-04-06T07:35:15.474Z,3.09
2023-04-06T07:37:43.308Z,3.33
2023-04-06T07:40:10.439Z,3.54
2023-04-06T07:42:37.998Z,3.64
2023-04-06T07:45:08.557Z,3.54
2023-04-06T07:47:35.253Z,3.79
2023-04-06T07:50:02.273Z,3.59
2023-04-06T07:52:29.892Z,3.40
2023-04-06T07:54:57.072Z,3.55
2023-04-06T07:57:23.653Z,3.94
2023-04-06T07:59:50.673Z,4.12
2023-04-06T08:02:17.598Z,4.45
2023-04-06T08:04:45.790Z,4.58
2023-04-06T08:07:13.357Z,5.05
2023-04-06T08:09:39.977Z,5.24
2023-04-06T08:12:06.859Z,5.40
2023-04-06T08:14:33.487Z,5.48
2023-04-06T08:17:01.026Z,5.35
2023-04-06T08:19:27.592Z,5.47
2023-04-06T08:21:54.472Z,5.95
2023-04-06T08:24:21.110Z,6.36
2023-04-06T08:26:47.779Z,6.65
2023-04-06T08:29:14.412Z,6.87
2023-04-06T08:31:41.565Z,7.13
2023-04-06T08:34:10.767Z,6.93
2023-04-06T08:36:38.926Z,7.30
2023-04-06T08:39:05.690Z,7.62
2023-04-06T08:41:33.056Z,7.00
2023-04-06T08:44:02.319Z,7.47
2023-04-06T08:46:31.527Z,8.14
2023-04-06T08:49:01.052Z,7.81
2023-04-06T08:51:29.008Z,7.71
2023-04-06T08:53:57.117Z,7.60
2023-04-06T08:56:28.276Z,7.56
2023-04-06T08:58:56.390Z,7.76
2023-04-06T09:01:28.707Z,7.90
2023-04-06T09:03:58.944Z,8.31
2023-04-06T09:06:28.015Z,8.35
2023-04-06T09:08:55.752Z,8.77
2023-04-06T09:11:22.406Z,8.90
2023-04-06T09:13:54.898Z,9.01
2023-04-06T09:16:22.344Z,9.31
2023-04-06T09:18:49.641Z,9.61
2023-04-06T09:21:24.674Z,9.62
2023-04-06T09:24:03.399Z,9.39
2023-04-06T09:26:30.495Z,9.57
2023-04-06T09:28:59.032Z,9.22
2023-04-06T09:31:33.924Z,9.36
2023-04-06T09:34:01.307Z,9.34
2023-04-06T09:36:36.068Z,10.42
2023-04-06T09:39:04.550Z,10.75
2023-04-06T09:41:37.990Z,10.54
2023-04-06T09:44:04.640Z,10.61
2023-04-06T09:46:50.546Z,10.95
2023-04-06T09:49:25.412Z,11.16
2023-04-06T09:51:59.626Z,11.78
2023-04-06T09:54:30.551Z,12.23
2023-04-06T09:57:04.856Z,11.85
2023-04-06T09:59:52.313Z,11.63
2023-04-06T10:02:33.346Z,11.76
2023-04-06T10:08:00.105Z,12.19
2023-04-06T10:10:31.277Z,12.13
2023-04-06T10:12:59.286Z,11.15
2023-04-06T10:15:26.705Z,10.91
2023-04-06T10:17:53.858Z,10.63
2023-04-06T10:20:36.877Z,10.54
2023-04-06T10:23:16.802Z,10.40
2023-04-06T10:26:02.664Z,10.36
2023-04-06T10:28:35.444Z,10.80
2023-04-06T10:31:05.896Z,10.95
2023-04-06T10:33:33.103Z,10.76
2023-04-06T10:36:13.655Z,11.02
2023-04-06T10:38:42.036Z,10.83
2023-04-06T10:41:11.780Z,11.81
2023-04-06T10:43:40.528Z,12.56
2023-04-06T10:46:10.656Z,13.73
2023-04-06T10:48:47.447Z,13.90
2023-04-06T10:51:16.260Z,13.40
2023-04-06T10:53:44.765Z,13.11
2023-04-06T10:56:13.340Z,13.57
2023-04-06T10:58:56.875Z,14.04
2023-04-06T11:01:27.177Z,14.52
2023-04-06T11:04:01.322Z,14.75
2023-04-06T11:06:31.651Z,14.23
2023-04-06T11:08:59.743Z,14.96
2023-04-06T11:11:27.866Z,14.63
2023-04-06T11:13:59.704Z,14.66
2023-04-06T11:16:34.057Z,14.24
2023-04-06T11:19:03.634Z,12.92
2023-04-06T11:21:40.664Z,12.73
2023-04-06T11:24:17.449Z,14.67
2023-04-06T11:26:50.101Z,13.87
2023-04-06T11:29:21.143Z,14.48
2023-04-06T11:31:53.167Z,15.02
2023-04-06T11:34:24.790Z,16.04
2023-04-06T11:36:58.132Z,15.83
2023-04-06T11:39:27.525Z,15.95
2023-04-06T11:42:04.990Z,16.09
2023-04-06T11:44:50.543Z,17.26
2023-04-06T11:47:17.352Z,16.91
2023-04-06T11:49:51.330Z,16.81
2023-04-06T11:52:23.535Z,16.53
2023-04-06T11:54:52.206Z,17.46
2023-04-06T11:57:20.864Z,17.26
2023-04-06T11:59:47.996Z,16.90
2023-04-06T12:02:14.671Z,17.68
2023-04-06T12:04:41.355Z,18.36
2023-04-06T12:07:08.117Z,18.62
2023-04-06T12:09:35.661Z,19.89
2023-04-06T12:12:03.004Z,20.32
2023-04-06T12:14:31.577Z,17.53
2023-04-06T12:16:59.274Z,18.09
2023-04-06T12:19:26.861Z,17.45
2023-04-06T12:21:55.562Z,17.23
2023-04-06T12:24:22.408Z,18.79
2023-04-06T12:26:51.548Z,19.69
2023-04-06T12:29:20.846Z,18.16
2023-04-06T12:31:47.593Z,19.23
2023-04-06T12:34:14.342Z,20.92
2023-04-06T12:36:41.259Z,21.31
2023-04-06T12:39:08.102Z,19.42
2023-04-06T12:41:35.586Z,19.29
2023-04-06T12:44:03.000Z,20.48
2023-04-06T12:46:33.452Z,20.04
2023-04-06T12:49:00.558Z,19.84
2023-04-06T12:51:31.993Z,18.24
2023-04-06T12:53:58.667Z,18.97
2023-04-06T12:56:26.239Z,20.73
2023-04-06T12:58:53.531Z,21.34
2023-04-06T13:01:21.112Z,20.64
2023-04-06T13:03:48.545Z,21.93
2023-04-06T13:06:16.304Z,21.96
2023-04-06T13:08:43.390Z,22.03
2023-04-06T13:11:10.468Z,22.01
2023-04-06T13:13:38.306Z,21.76
2023-04-06T13:16:08.509Z,22.28
2023-04-06T13:18:37.695Z,21.78
2023-04-06T13:21:05.512Z,21.04
2023-04-06T13:23:32.828Z,18.89
2023-04-06T13:26:01.742Z,17.94
2023-04-06T13:28:28.742Z,16.79
2023-04-06T13:30:56.574Z,16.20
2023-04-06T13:33:23.769Z,17.14
2023-04-06T13:35:50.452Z,18.38
2023-04-06T13:38:17.142Z,19.50
2023-04-06T13:40:44.275Z,20.53
2023-04-06T13:43:11.262Z,21.13
2023-04-06T13:45:38.708Z,21.47
2023-04-06T13:48:06.411Z,21.58
2023-04-06T13:50:34.084Z,20.86
2023-04-06T13:53:00.692Z,20.69
2023-04-06T13:55:27.322Z,21.57
2023-04-06T13:57:53.934Z,21.94
2023-04-06T14:00:20.885Z,21.82
2023-04-06T14:02:47.589Z,21.53
2023-04-06T14:05:14.536Z,21.21
2023-04-06T14:07:41.335Z,21.10
2023-04-06T14:10:14.637Z,20.45
2023-04-06T14:12:45.679Z,21.01
2023-04-06T14:15:16.353Z,21.78
2023-04-06T14:17:43.091Z,21.62
2023-04-06T14:20:14.907Z,21.20
2023-04-06T14:22:43.804Z,21.82
2023-04-06T14:25:12.242Z,23.58
2023-04-06T14:27:39.626Z,22.90
2023-04-06T14:30:07.125Z,22.88
2023-04-06T14:32:33.869Z,22.47
2023-04-06T14:35:00.621Z,21.91
2023-04-06T14:37:27.304Z,20.37
2023-04-06T14:39:54.085Z,21.23
2023-04-06T14:42:20.759Z,22.17
2023-04-06T14:44:47.380Z,21.35
2023-04-06T14:47:16.700Z,18.83
2023-04-06T14:49:43.381Z,18.31
2023-04-06T14:52:10.120Z,18.40
2023-04-06T14:54:36.679Z,19.49
2023-04-06T14:57:03.471Z,18.64
2023-04-06T14:59:30.630Z,17.46
2023-04-06T15:01:57.424Z,18.53
2023-04-06T15:04:24.300Z,20.06
2023-04-06T15:06:51.117Z,21.43
2023-04-06T15:09:18.038Z,20.05
2023-04-06T15:11:44.627Z,19.85
2023-04-06T15:14:11.177Z,19.51
2023-04-06T15:16:37.689Z,18.97
2023-04-06T15:19:04.300Z,18.11
2023-04-06T15:21:32.153Z,17.14
2023-04-06T15:23:58.890Z,15.56
2023-04-06T15:26:27.473Z,14.23
2023-04-06T15:28:54.018Z,14.05
2023-04-06T15:31:36.708Z,13.72
2023-04-06T15:34:04.898Z,14.09
2023-04-06T15:36:31.697Z,15.19
2023-04-06T15:38:58.602Z,15.41
2023-04-06T15:41:27.075Z,14.94
2023-04-06T15:43:54.508Z,15.28
2023-04-06T15:46:21.625Z,15.41
2023-04-06T15:48:48.724Z,14.92
2023-04-06T15:51:17.597Z,14.34
2023-04-06T15:53:44.837Z,13.87
2023-04-06T15:56:11.589Z,13.11
2023-04-06T15:58:38.258Z,12.56
2023-04-06T16:01:19.258Z,12.34
2023-04-06T16:03:46.561Z,11.82
2023-04-06T16:06:13.416Z,11.87
2023-04-06T16:08:40.737Z,12.06
2023-04-06T16:11:08.045Z,11.89
2023-04-06T16:13:35.673Z,11.68
2023-04-06T16:16:03.933Z,11.39
2023-04-06T16:18:32.523Z,11.33
2023-04-06T16:21:00.303Z,11.52
2023-04-06T16:23:27.265Z,11.35
2023-04-06T16:25:57.914Z,11.14
2023-04-06T16:28:25.550Z,10.99
2023-04-06T16:30:52.857Z,11.00
2023-04-06T16:33:19.571Z,10.85
2023-04-06T16:35:47.428Z,10.76
2023-04-06T16:38:15.104Z,10.72
2023-04-06T16:40:42.230Z,10.65
2023-04-06T16:43:10.019Z,10.76
2023-04-06T16:45:37.888Z,10.63
2023-04-06T16:48:04.761Z,10.50
2023-04-06T16:50:31.685Z,10.41
2023-04-06T16:52:58.563Z,10.17
2023-04-06T16:55:25.387Z,10.02
2023-04-06T16:57:56.222Z,9.83
2023-04-06T17:00:23.098Z,9.74
2023-04-06T17:02:50.146Z,9.71
2023-04-06T17:05:21.950Z,9.48
2023-04-06T17:07:48.512Z,9.39
2023-04-06T17:10:15.562Z,9.20
2023-04-06T17:12:42.672Z,9.07
2023-04-06T17:15:09.762Z,8.87
2023-04-06T17:17:36.380Z,8.74
2023-04-06T17:20:03.116Z,8.57
2023-04-06T17:22:30.020Z,8.41
2023-04-06T17:24:56.644Z,8.28
2023-04-06T17:27:23.776Z,8.08
2023-04-06T17:29:50.546Z,7.78
2023-04-06T17:32:22.097Z,7.57
2023-04-06T17:34:48.677Z,7.38
2023-04-06T17:37:15.464Z,7.25
2023-04-06T17:39:42.191Z,6.99
2023-04-06T17:42:09.160Z,6.70
2023-04-06T17:44:36.304Z,6.56
2023-04-06T17:47:02.866Z,6.50
2023-04-06T17:49:29.776Z,6.33
2023-04-06T17:51:56.618Z,6.17
2023-04-06T17:54:23.512Z,6.09
2023-04-06T17:56:51.859Z,5.93
2023-04-06T17:59:18.395Z,5.91
2023-04-06T18:01:45.689Z,5.75
2023-04-06T18:04:12.487Z,5.62
2023-04-06T18:06:39.233Z,5.56
2023-04-06T18:09:06.438Z,5.40
2023-04-06T18:11:33.081Z,5.39
2023-04-06T18:13:59.690Z,5.37
2023-04-06T18:16:28.323Z,5.35
2023-04-06T18:18:56.302Z,5.15
2023-04-06T18:21:24.239Z,4.98
2023-04-06T18:23:51.007Z,4.68
2023-04-06T18:26:18.877Z,4.55
2023-04-06T18:28:46.683Z,4.46
2023-04-06T18:31:13.853Z,4.44
2023-04-06T18:33:40.443Z,4.37
2023-04-06T18:36:07.657Z,4.33
2023-04-06T18:38:34.254Z,4.23
2023-04-06T18:41:01.020Z,4.21
2023-04-06T18:43:28.505Z,4.23
2023-04-06T18:45:55.256Z,4.15
2023-04-06T18:48:22.066Z,4.10
2023-04-06T18:50:57.786Z,4.10
2023-04-06T18:53:24.564Z,4.16
2023-04-06T18:55:51.644Z,4.13
2023-04-06T18:58:18.313Z,4.19
2023-04-06T19:00:44.947Z,4.20
2023-04-06T19:03:11.628Z,4.13
2023-04-06T19:05:43.666Z,4.05
2023-04-06T19:08:10.436Z,3.92
2023-04-06T19:10:38.438Z,3.83
2023-04-06T19:13:05.712Z,3.71
2023-04-06T19:15:32.388Z,3.46
2023-04-06T19:17:59.080Z,3.31
2023-04-06T19:20:26.205Z,3.25
2023-04-06T19:22:52.942Z,3.21
2023-04-06T19:25:19.783Z,3.21
2023-04-06T19:27:46.501Z,3.29
2023-04-06T19:30:13.483Z,3.47
2023-04-06T19:32:42.487Z,3.54
2023-04-06T19:35:09.210Z,3.68
2023-04-06T19:37:37.799Z,3.75
2023-04-06T19:40:07.637Z,3.69
2023-04-06T19:42:34.803Z,3.67
2023-04-06T19:45:01.449Z,3.68
2023-04-06T19:47:28.198Z,3.54
2023-04-06T19:49:54.887Z,3.42
2023-04-06T19:52:22.791Z,3.37
2023-04-06T19:54:49.624Z,3.23
2023-04-06T19:57:16.307Z,3.21
2023-04-06T19:59:43.228Z,3.02
2023-04-06T20:02:10.006Z,2.94
2023-04-06T20:04:36.676Z,2.81
2023-04-06T20:07:03.656Z,2.79
2023-04-06T20:09:30.444Z,2.84
2023-04-06T20:11:57.337Z,2.92
2023-04-06T20:14:24.218Z,2.97
2023-04-06T20:16:51.555Z,2.98
2023-04-06T20:19:18.357Z,2.95
2023-04-06T20:21:45.353Z,2.94
2023-04-06T20:24:12.192Z,2.94
2023-04-06T20:26:39.005Z,2.98
2023-04-06T20:29:06.276Z,2.87
2023-04-06T20:31:33.691Z,2.96
2023-04-06T20:34:00.533Z,2.97
2023-04-06T20:36:28.115Z,2.78
2023-04-06T20:38:55.024Z,2.74
2023-04-06T20:41:22.096Z,2.71
2023-04-06T20:43:48.773Z,2.82
2023-04-06T20:46:17.177Z,2.90
2023-04-06T20:48:44.023Z,3.00
2023-04-06T20:51:23.216Z,2.96
2023-04-06T20:53:50.356Z,3.05
2023-04-06T20:56:17.203Z,3.12
2023-04-06T20:58:43.829Z,3.18
2023-04-06T21:01:17.691Z,3.27
2023-04-06T21:03:45.248Z,3.29
2023-04-06T21:06:12.086Z,3.40
2023-04-06T21:08:39.085Z,3.39
2023-04-06T21:11:06.450Z,3.43
2023-04-06T21:13:34.276Z,3.30
2023-04-06T21:16:01.754Z,3.42
2023-04-06T21:18:30.024Z,3.49
2023-04-06T21:20:56.644Z,3.55
2023-04-06T21:23:23.476Z,3.56
2023-04-06T21:25:55.332Z,3.50
2023-04-06T21:28:22.259Z,3.38
2023-04-06T21:30:48.966Z,3.35
2023-04-06T21:33:15.591Z,3.33
2023-04-06T21:35:42.264Z,3.25
2023-04-06T21:38:09.457Z,3.25
2023-04-06T21:40:37.651Z,3.22
2023-04-06T21:43:04.974Z,3.14
2023-04-06T21:45:32.905Z,3.00
2023-04-06T21:48:00.457Z,2.95
2023-04-06T21:50:27.102Z,2.77
2023-04-06T21:52:53.717Z,2.79
2023-04-06T21:55:20.486Z,2.91
2023-04-06T21:57:47.054Z,2.91
2023-04-06T22:00:14.446Z,2.82
2023-04-06T22:02:45.929Z,2.96
2023-04-06T22:05:13.105Z,3.04
2023-04-06T22:07:40.166Z,3.04
2023-04-06T22:10:07.240Z,3.07
2023-04-06T22:12:34.156Z,3.14
2023-04-06T22:15:00.723Z,3.13
2023-04-06T22:17:27.875Z,3.14
2023-04-06T22:19:54.526Z,3.08
2023-04-06T22:22:21.141Z,3.11
2023-04-06T22:24:47.861Z,3.11
2023-04-06T22:27:14.616Z,3.09
2023-04-06T22:29:41.340Z,3.11
2023-04-06T22:32:08.006Z,3.15
2023-04-06T22:34:34.647Z,3.19
2023-04-06T22:37:01.301Z,3.22
2023-04-06T22:39:27.851Z,3.16
2023-04-06T22:41:54.394Z,3.18
2023-04-06T22:44:21.175Z,3.21
2023-04-06T22:46:47.801Z,3.23
2023-04-06T22:49:14.520Z,3.22
2023-04-06T22:51:42.064Z,3.25
2023-04-06T22:54:10.579Z,3.22
2023-04-06T22:56:37.226Z,3.22
2023-04-06T22:59:03.853Z,3.17
2023-04-06T23:01:30.644Z,3.13
2023-04-06T23:03:57.733Z,3.09
2023-04-06T23:06:24.460Z,3.15
2023-04-06T23:08:51.041Z,3.30
2023-04-06T23:11:17.751Z,3.44
2023-04-06T23:13:44.356Z,3.56
2023-04-06T23:16:11.083Z,3.72
2023-04-06T23:18:37.882Z,3.82
2023-04-06T23:21:07.868Z,3.92
2023-04-06T23:23:34.693Z,3.96
2023-04-06T23:26:01.421Z,3.94
2023-04-06T23:28:28.178Z,3.89
2023-04-06T23:30:54.815Z,3.75
2023-04-06T23:33:21.746Z,3.70
2023-04-06T23:35:49.729Z,3.57
2023-04-06T23:38:16.906Z,3.47
2023-04-06T23:40:43.457Z,3.44
2023-04-06T23:43:10.018Z,3.39
2023-04-06T23:45:40.834Z,3.41
2023-04-06T23:48:07.702Z,3.65
2023-04-06T23:50:36.051Z,3.75
2023-04-06T23:53:06.459Z,3.92
2023-04-06T23:55:33.153Z,3.98
2023-04-06T23:58:00.083Z,3.97
